Time;durP1;ratioP1;P1;durP2;ratioP2;P2;SDS_P1;SDS_P2;PMS_P1;PMS_P2;Temp;Humidity;BMP_temperature;BMP_pressure;BME280_temperature;BME280_humidity;BME280_pressure;Samples;Min_cycle;Max_cycle;Signal;HPM_P1;HPM_P2
2023/11/23 00:00:11;;;;;;;12.45;8.15;;;;;;;9.45;100.00;98001.69;4979029;28;20067;-81
2023/11/23 00:02:38;;;;;;;11.55;7.40;;;;;;;9.55;100.00;98016.31;4979946;28;20031;-80
2023/11/23 00:05:04;;;;;;;12.07;7.15;;;;;;;9.45;100.00;98005.25;4980447;28;20029;-82
2023/11/23 00:07:31;;;;;;;11.88;6.80;;;;;;;9.40;100.00;98014.44;4979112;28;20132;-81
2023/11/23 00:09:57;;;;;;;10.80;5.47;;;;;;;9.44;100.00;98018.69;4980485;28;20449;-81
2023/11/23 00:12:23;;;;;;;7.93;5.40;;;;;;;9.40;100.00;98017.97;4979369;28;20026;-81
2023/11/23 00:14:48;;;;;;;7.82;5.55;;;;;;;9.44;100.00;98019.56;4995309;28;20477;-81
2023/11/23 00:17:15;;;;;;;10.50;5.93;;;;;;;9.44;100.00;98016.88;4995755;28;20049;-80
2023/11/23 00:19:41;;;;;;;11.30;6.45;;;;;;;9.52;100.00;98029.84;4995310;28;20026;-79
2023/11/23 00:22:06;;;;;;;10.77;7.00;;;;;;;9.51;100.00;98036.09;4995196;28;20478;-81
2023/11/23 00:24:35;;;;;;;11.27;6.55;;;;;;;9.53;100.00;98028.91;4977933;28;20041;-80
2023/11/23 00:27:00;;;;;;;9.80;6.03;;;;;;;9.58;100.00;98042.88;4982292;28;20506;-82
2023/11/23 00:29:26;;;;;;;11.35;5.90;;;;;;;9.59;100.00;98037.47;5011354;28;20030;-80
2023/11/23 00:31:52;;;;;;;10.27;6.10;;;;;;;9.57;100.00;98041.13;4995169;28;20041;-81
2023/11/23 00:34:17;;;;;;;10.68;6.45;;;;;;;9.51;100.00;98041.44;4994725;28;20041;-81
2023/11/23 00:36:43;;;;;;;9.52;6.38;;;;;;;9.51;100.00;98049.44;5011273;28;20052;-80
2023/11/23 00:39:09;;;;;;;8.63;5.50;;;;;;;9.58;100.00;98053.56;5011244;28;20474;-81
2023/11/23 00:41:38;;;;;;;9.25;5.88;;;;;;;9.55;100.00;98048.38;5011066;28;20061;-80
2023/11/23 00:44:05;;;;;;;9.38;6.05;;;;;;;9.52;100.00;98037.84;4992797;28;20474;-82
2023/11/23 00:46:31;;;;;;;8.88;6.10;;;;;;;9.48;100.00;98042.47;4994979;28;20476;-81
2023/11/23 00:48:59;;;;;;;9.38;6.43;;;;;;;9.52;100.00;98053.88;4994774;28;20022;-81
2023/11/23 00:51:26;;;;;;;10.35;6.82;;;;;;;9.50;100.00;98042.41;4995043;28;20395;-81
2023/11/23 00:53:51;;;;;;;11.65;6.95;;;;;;;9.54;100.00;98046.63;4994521;28;20502;-81
2023/11/23 00:56:17;;;;;;;13.93;7.88;;;;;;;9.51;100.00;98055.66;4994802;28;20056;-81
2023/11/23 00:58:44;;;;;;;11.38;7.50;;;;;;;9.41;100.00;98046.41;4994093;28;20133;-81
2023/11/23 01:01:14;;;;;;;11.38;7.93;;;;;;;9.50;100.00;98050.41;5010991;28;20083;-81
2023/11/23 01:03:40;;;;;;;10.50;7.55;;;;;;;9.42;100.00;98066.81;5010517;28;20045;-81
2023/11/23 01:06:06;;;;;;;10.57;7.75;;;;;;;9.49;100.00;98070.91;4994888;28;20026;-81
2023/11/23 01:08:31;;;;;;;11.43;7.93;;;;;;;9.52;100.00;98064.53;5010773;28;20037;-81
2023/11/23 01:10:59;;;;;;;9.55;6.68;;;;;;;9.45;100.00;98063.97;5010999;28;20064;-81
2023/11/23 01:13:25;;;;;;;11.68;7.28;;;;;;;9.41;100.00;98056.22;4994749;28;20036;-82
2023/11/23 01:15:51;;;;;;;12.90;8.07;;;;;;;9.50;100.00;98061.97;5010860;28;20831;-80
2023/11/23 01:18:16;;;;;;;14.23;7.63;;;;;;;9.53;100.00;98058.28;5010546;28;20030;-81
2023/11/23 01:20:42;;;;;;;14.60;8.13;;;;;;;9.60;100.00;98067.69;5011060;28;20034;-80
2023/11/23 01:23:08;;;;;;;11.00;7.65;;;;;;;9.50;100.00;98072.66;4994244;28;20025;-82
2023/11/23 01:25:35;;;;;;;13.27;8.73;;;;;;;9.41;100.00;98074.91;5011158;28;20037;-81
2023/11/23 01:28:00;;;;;;;12.40;7.82;;;;;;;9.43;100.00;98071.22;4994655;28;20946;-80
2023/11/23 01:30:26;;;;;;;11.57;7.65;;;;;;;9.46;100.00;98080.88;4993944;28;20117;-81
2023/11/23 01:32:52;;;;;;;16.92;9.27;;;;;;;9.41;100.00;98066.91;5010180;28;20060;-81
2023/11/23 01:35:20;;;;;;;14.90;8.35;;;;;;;9.48;100.00;98073.63;4993714;28;20061;-80
2023/11/23 01:37:46;;;;;;;14.57;8.90;;;;;;;9.47;100.00;98066.59;4994056;28;20511;-81
2023/11/23 01:40:12;;;;;;;15.27;9.55;;;;;;;9.45;100.00;98063.09;4993742;28;20046;-81
2023/11/23 01:42:38;;;;;;;18.42;9.77;;;;;;;9.46;100.00;98073.72;5010384;28;20034;-81
2023/11/23 01:45:05;;;;;;;26.10;12.52;;;;;;;9.38;100.00;98072.38;5010097;28;20044;-81
2023/11/23 01:47:30;;;;;;;19.05;10.85;;;;;;;9.44;100.00;98069.41;5009970;28;20029;-81
2023/11/23 01:49:57;;;;;;;19.13;10.65;;;;;;;9.47;100.00;98083.47;5010225;28;20493;-81
2023/11/23 01:52:23;;;;;;;21.63;10.65;;;;;;;9.36;100.00;98077.78;5010115;28;20489;-81
2023/11/23 01:54:50;;;;;;;22.33;12.20;;;;;;;9.33;100.00;98095.75;5010449;28;20057;-81
2023/11/23 01:57:16;;;;;;;22.42;11.68;;;;;;;9.34;100.00;98094.81;5009748;28;20342;-81
2023/11/23 01:59:42;;;;;;;19.25;11.15;;;;;;;9.38;100.00;98086.59;5010423;28;20030;-79
2023/11/23 02:02:07;;;;;;;17.10;9.82;;;;;;;9.40;100.00;98089.19;5010106;28;20104;-80
2023/11/23 02:04:33;;;;;;;11.55;8.07;;;;;;;9.36;100.00;98096.47;4993309;28;20034;-82
2023/11/23 02:06:59;;;;;;;12.82;7.93;;;;;;;9.35;100.00;98093.88;5010464;28;20025;-80
2023/11/23 02:09:25;;;;;;;15.18;8.23;;;;;;;9.23;100.00;98085.50;4993544;28;20406;-80
2023/11/23 02:11:50;;;;;;;15.93;7.10;;;;;;;9.25;100.00;98083.66;5010309;28;20022;-81
2023/11/23 02:14:16;;;;;;;11.48;6.25;;;;;;;9.30;100.00;98082.56;4993584;28;20022;-80
2023/11/23 02:16:42;;;;;;;10.18;5.78;;;;;;;9.35;100.00;98086.72;5009797;28;20030;-81
2023/11/23 02:19:07;;;;;;;8.68;5.90;;;;;;;9.12;100.00;98079.84;4993893;28;20041;-81
2023/11/23 02:21:33;;;;;;;6.43;5.22;;;;;;;9.17;100.00;98091.16;4994225;28;20088;-81
2023/11/23 02:23:58;;;;;;;8.20;5.38;;;;;;;9.17;100.00;98080.47;4994187;28;20022;-80
2023/11/23 02:26:24;;;;;;;8.63;5.75;;;;;;;9.23;100.00;98082.84;4996868;28;20138;-80
2023/11/23 02:28:50;;;;;;;11.23;6.50;;;;;;;9.20;100.00;98085.66;4997817;28;20033;-81
2023/11/23 02:31:16;;;;;;;9.55;6.45;;;;;;;9.29;100.00;98091.50;5013712;28;20390;-81
2023/11/23 02:33:42;;;;;;;10.48;7.35;;;;;;;9.32;100.00;98091.38;4997486;28;20061;-81
2023/11/23 02:36:08;;;;;;;13.30;8.30;;;;;;;9.18;100.00;98084.00;4997186;28;20048;-81
2023/11/23 02:38:33;;;;;;;12.25;8.82;;;;;;;9.20;100.00;98088.34;5014493;28;20048;-81
2023/11/23 02:40:59;;;;;;;13.05;7.75;;;;;;;9.31;100.00;98101.19;5013305;28;20034;-81
2023/11/23 02:43:28;;;;;;;8.50;5.85;;;;;;;9.30;100.00;98111.91;4996956;28;20044;-81
2023/11/23 02:45:54;;;;;;;8.27;5.10;;;;;;;9.22;100.00;98118.50;5013910;28;20091;-81
2023/11/23 02:48:20;;;;;;;7.65;5.10;;;;;;;9.19;100.00;98104.44;4997028;28;20025;-82
2023/11/23 02:50:47;;;;;;;9.73;5.75;;;;;;;9.14;100.00;98093.09;5007689;28;20025;-81
2023/11/23 02:53:27;;;;;;;12.35;6.53;;;;;;;9.12;100.00;98100.31;5013253;28;20026;-81
2023/11/23 02:55:54;;;;;;;14.65;7.28;;;;;;;9.10;100.00;98089.72;5013735;28;20022;-81
2023/11/23 02:58:20;;;;;;;16.05;7.70;;;;;;;9.17;100.00;98107.16;4996501;28;20036;-81
2023/11/23 03:00:46;;;;;;;17.10;9.30;;;;;;;9.08;100.00;98107.59;4996690;28;20038;-81
2023/11/23 03:03:12;;;;;;;16.60;8.93;;;;;;;9.06;100.00;98109.47;5012977;28;20022;-80
2023/11/23 03:05:39;;;;;;;13.95;7.93;;;;;;;9.13;100.00;98102.94;4996367;28;20060;-81
2023/11/23 03:08:06;;;;;;;10.85;7.30;;;;;;;9.11;100.00;98112.78;4997250;28;20018;-79
2023/11/23 03:10:33;;;;;;;10.40;6.03;;;;;;;9.13;100.00;98116.28;5012934;28;20026;-81
2023/11/23 03:13:00;;;;;;;6.65;4.80;;;;;;;9.10;100.00;98113.75;5013998;28;20029;-81
2023/11/23 03:15:26;;;;;;;6.90;4.57;;;;;;;9.05;100.00;98110.41;5012938;28;20124;-81
2023/11/23 03:17:52;;;;;;;9.77;4.72;;;;;;;8.99;100.00;98102.69;4996375;28;20045;-81
2023/11/23 03:20:17;;;;;;;6.22;4.75;;;;;;;8.97;100.00;98109.91;4996682;28;20113;-81
2023/11/23 03:22:43;;;;;;;9.15;6.07;;;;;;;8.97;100.00;98112.59;5012804;28;20030;-82
2023/11/23 03:25:09;;;;;;;7.80;5.25;;;;;;;9.02;100.00;98113.22;5012137;28;20113;-80
2023/11/23 03:27:36;;;;;;;7.75;5.30;;;;;;;8.92;100.00;98100.41;5012226;28;20045;-80
2023/11/23 03:30:05;;;;;;;11.07;5.68;;;;;;;9.05;100.00;98129.09;5012267;28;20061;-80
2023/11/23 03:32:32;;;;;;;6.90;4.50;;;;;;;8.99;100.00;98126.69;5012046;28;20417;-82
2023/11/23 03:34:59;;;;;;;7.38;4.70;;;;;;;8.97;100.00;98125.06;5012018;28;20068;-82
2023/11/23 03:37:24;;;;;;;7.15;4.68;;;;;;;9.01;100.00;98124.81;4996180;28;20026;-82
2023/11/23 03:39:50;;;;;;;10.77;6.22;;;;;;;9.02;100.00;98128.34;4995621;28;20028;-81
2023/11/23 03:42:16;;;;;;;71.72;40.88;;;;;;;8.93;100.00;98127.00;4996176;28;20045;-82
2023/11/23 03:44:41;;;;;;;19.40;11.48;;;;;;;8.92;100.00;98127.91;5012293;28;20030;-81
2023/11/23 03:47:07;;;;;;;104.38;54.25;;;;;;;8.89;100.00;98122.72;4995510;28;20157;-80
2023/11/23 03:49:34;;;;;;;8.98;5.25;;;;;;;8.80;100.00;98112.47;4995448;28;20029;-81
2023/11/23 03:51:59;;;;;;;9.15;5.13;;;;;;;8.84;100.00;98122.06;4995630;28;20022;-81
2023/11/23 03:54:25;;;;;;;8.52;5.30;;;;;;;8.89;100.00;98121.88;5011729;28;20212;-80
2023/11/23 03:56:50;;;;;;;6.22;3.97;;;;;;;8.88;100.00;98126.34;5013448;28;20030;-80
2023/11/23 03:59:16;;;;;;;31.85;18.77;;;;;;;8.87;100.00;98124.59;4995524;28;20113;-81
2023/11/23 04:01:46;;;;;;;8.65;5.15;;;;;;;8.92;100.00;98127.91;4995531;28;20057;-81
2023/11/23 04:04:12;;;;;;;10.35;5.72;;;;;;;8.88;100.00;98130.81;4995536;28;20600;-82
2023/11/23 04:06:39;;;;;;;8.10;4.65;;;;;;;8.82;100.00;98123.09;4995630;28;20409;-82
2023/11/23 04:09:04;;;;;;;8.45;4.68;;;;;;;8.73;100.00;98135.03;4995878;28;20049;-81
2023/11/23 04:11:30;;;;;;;10.00;4.60;;;;;;;8.69;100.00;98131.66;4995716;28;20579;-82
2023/11/23 04:13:55;;;;;;;8.68;4.82;;;;;;;8.64;100.00;98132.78;4995109;28;20033;-82
2023/11/23 04:16:21;;;;;;;7.35;4.20;;;;;;;8.73;100.00;98137.72;5011985;28;20057;-82
2023/11/23 04:18:47;;;;;;;8.52;4.32;;;;;;;8.68;100.00;98132.56;5011605;28;20088;-82
2023/11/23 04:21:14;;;;;;;8.65;4.30;;;;;;;8.74;100.00;98144.75;4994973;28;20033;-82
2023/11/23 04:23:40;;;;;;;8.43;4.22;;;;;;;8.71;100.00;98136.91;4995379;28;20026;-81
2023/11/23 04:26:06;;;;;;;14.80;5.63;;;;;;;8.69;100.00;98136.97;4994681;28;20454;-80
2023/11/23 04:28:32;;;;;;;17.02;8.73;;;;;;;8.67;100.00;98138.00;4994780;28;20025;-81
2023/11/23 04:30:57;;;;;;;8.63;4.65;;;;;;;8.70;100.00;98140.53;4978656;28;20121;-81
2023/11/23 04:33:23;;;;;;;6.32;4.28;;;;;;;8.74;100.00;98138.59;4978716;28;20060;-82
2023/11/23 04:35:49;;;;;;;7.47;4.63;;;;;;;8.74;100.00;98134.09;4994899;28;20088;-80
2023/11/23 04:38:14;;;;;;;7.22;4.60;;;;;;;8.74;100.00;98141.25;4978434;28;20813;-82
2023/11/23 04:40:40;;;;;;;4.93;3.88;;;;;;;8.71;100.00;98135.09;4978686;28;20034;-82
2023/11/23 04:43:05;;;;;;;5.55;4.03;;;;;;;8.75;100.00;98135.84;4977844;28;20048;-81
2023/11/23 04:45:31;;;;;;;7.38;4.13;;;;;;;8.74;100.00;98144.75;4979009;28;20037;-82
2023/11/23 04:47:57;;;;;;;7.00;4.43;;;;;;;8.70;100.00;98137.84;4994275;28;20083;-80
2023/11/23 04:50:22;;;;;;;11.90;5.72;;;;;;;8.66;100.00;98137.13;4978247;28;20116;-83
2023/11/23 04:52:48;;;;;;;80.68;43.67;;;;;;;8.64;100.00;98148.78;4994137;28;20037;-84
2023/11/23 04:55:14;;;;;;;49.70;27.27;;;;;;;8.64;100.00;98151.47;4977618;28;20125;-82
2023/11/23 04:57:39;;;;;;;7.50;5.13;;;;;;;8.58;100.00;98146.41;4994092;28;20068;-82
2023/11/23 05:00:06;;;;;;;7.53;4.50;;;;;;;8.63;100.00;98152.38;4994608;28;20116;-82
2023/11/23 05:02:32;;;;;;;5.70;4.20;;;;;;;8.65;100.00;98151.38;4978026;28;20374;-82
2023/11/23 05:04:57;;;;;;;4.85;3.80;;;;;;;8.67;100.00;98159.31;4978344;28;20026;-82
2023/11/23 05:07:25;;;;;;;0.57;0.40;;;;;;;8.63;100.00;98155.06;4977844;28;20040;-81
2023/11/23 05:09:51;;;;;;;0.40;0.15;;;;;;;8.66;100.00;98162.91;4978288;28;20029;-82
2023/11/23 05:12:17;;;;;;;0.38;0.38;;;;;;;8.69;100.00;98168.13;4977947;28;20030;-81
2023/11/23 05:14:43;;;;;;;0.57;0.50;;;;;;;8.74;100.00;98179.44;4977854;28;20399;-84
2023/11/23 05:17:08;;;;;;;0.10;0.10;;;;;;;8.65;100.00;98182.50;4995589;28;20088;-83
2023/11/23 05:19:35;;;;;;;11.60;5.00;;;;;;;8.62;100.00;98179.97;4977509;28;20404;-83
2023/11/23 05:22:02;;;;;;;0.77;0.55;;;;;;;8.67;100.00;98186.00;4977897;28;20034;-84
2023/11/23 05:24:27;;;;;;;3.88;2.67;;;;;;;8.66;100.00;98194.91;4977981;28;20060;-83
2023/11/23 05:26:55;;;;;;;1.77;1.67;;;;;;;8.59;100.00;98194.31;4982154;28;20041;-84
2023/11/23 05:29:21;;;;;;;0.68;0.68;;;;;;;8.56;100.00;98201.56;4993805;28;20049;-82
2023/11/23 05:31:48;;;;;;;0.30;0.25;;;;;;;8.43;100.00;98190.56;4993841;28;20029;-82
2023/11/23 05:34:13;;;;;;;0.30;0.30;;;;;;;8.39;100.00;98196.13;4993738;28;20049;-82
2023/11/23 05:36:39;;;;;;;0.40;0.30;;;;;;;8.48;100.00;98201.06;5009781;28;20060;-82
2023/11/23 05:39:04;;;;;;;0.73;0.73;;;;;;;8.54;100.00;98203.44;4993384;28;20104;-83
2023/11/23 05:41:30;;;;;;;2.10;1.48;;;;;;;8.50;100.00;98197.38;4993885;28;20030;-82
2023/11/23 05:43:58;;;;;;;0.50;0.50;;;;;;;8.57;100.00;98211.31;5009771;28;20409;-83
2023/11/23 05:46:24;;;;;;;1.00;1.00;;;;;;;8.60;100.00;98205.84;4994006;28;20033;-82
2023/11/23 05:48:49;;;;;;;0.77;0.77;;;;;;;8.59;100.00;98212.97;5009841;28;20018;-83
2023/11/23 05:51:15;;;;;;;0.32;0.32;;;;;;;8.52;100.00;98221.31;5010761;28;20034;-82
2023/11/23 05:53:42;;;;;;;0.77;0.70;;;;;;;8.55;100.00;98219.38;4993359;28;20567;-82
2023/11/23 05:56:07;;;;;;;1.05;1.05;;;;;;;8.59;100.00;98220.09;5003668;28;20097;-83
2023/11/23 05:58:33;;;;;;;3.55;1.42;;;;;;;8.60;100.00;98216.53;4993406;28;20533;-82
2023/11/23 06:00:58;;;;;;;0.73;0.73;;;;;;;8.66;100.00;98226.91;4993254;28;20036;-80
2023/11/23 06:03:24;;;;;;;0.93;0.75;;;;;;;8.69;100.00;98237.44;4993398;28;20041;-82
2023/11/23 06:05:51;;;;;;;1.25;1.15;;;;;;;8.68;100.00;98225.03;4992915;28;20022;-82
2023/11/23 06:08:17;;;;;;;2.30;1.10;;;;;;;8.76;100.00;98219.38;4993439;28;20111;-82
2023/11/23 06:10:42;;;;;;;1.50;1.40;;;;;;;8.75;100.00;98229.19;5010732;28;20026;-82
2023/11/23 06:13:08;;;;;;;3.03;1.00;;;;;;;8.70;100.00;98233.88;4993212;28;20026;-82
2023/11/23 06:15:34;;;;;;;4.55;1.88;;;;;;;8.73;100.00;98241.72;4993767;28;20391;-81
2023/11/23 06:17:59;;;;;;;1.95;1.85;;;;;;;8.77;100.00;98245.97;5009529;28;20037;-82
2023/11/23 06:20:25;;;;;;;0.75;0.60;;;;;;;8.80;100.00;98253.84;4993062;28;20405;-82
2023/11/23 06:22:50;;;;;;;9.82;1.83;;;;;;;8.79;100.00;98248.59;5009483;28;20117;-84
2023/11/23 06:25:16;;;;;;;0.90;0.75;;;;;;;8.81;100.00;98250.25;5010076;28;20030;-83
2023/11/23 06:27:42;;;;;;;2.13;1.25;;;;;;;8.88;100.00;98254.41;4993278;28;20049;-83
2023/11/23 06:30:09;;;;;;;1.52;1.42;;;;;;;8.86;100.00;98258.91;5009548;28;20536;-81
2023/11/23 06:32:35;;;;;;;2.20;1.35;;;;;;;8.85;100.00;98253.66;5009867;28;20413;-83
2023/11/23 06:35:00;;;;;;;3.80;2.53;;;;;;;8.82;100.00;98254.66;4992667;28;20032;-83
2023/11/23 06:37:26;;;;;;;1.88;1.52;;;;;;;8.90;100.00;98247.19;4993418;28;20054;-82
2023/11/23 06:39:52;;;;;;;1.38;1.27;;;;;;;8.88;100.00;98251.72;4993014;28;20155;-82
2023/11/23 06:42:19;;;;;;;0.30;0.30;;;;;;;8.93;100.00;98249.72;5010407;28;20401;-83
2023/11/23 06:44:45;;;;;;;6.25;2.60;;;;;;;8.86;100.00;98224.22;4993272;28;20439;-82
2023/11/23 06:47:11;;;;;;;3.40;1.13;;;;;;;8.99;100.00;98245.91;4993155;28;20030;-84
2023/11/23 06:49:37;;;;;;;1.00;0.98;;;;;;;8.99;100.00;98256.56;4993112;28;20470;-82
2023/11/23 06:52:03;;;;;;;2.85;2.60;;;;;;;8.96;100.00;98248.69;4992856;28;20029;-83
2023/11/23 06:54:29;;;;;;;4.78;1.65;;;;;;;8.87;100.00;98257.13;4992854;28;20034;-83
2023/11/23 06:56:57;;;;;;;2.05;1.63;;;;;;;8.92;100.00;98260.47;4992936;28;20493;-82
2023/11/23 06:59:22;;;;;;;2.50;2.30;;;;;;;8.94;100.00;98248.78;4986739;28;20064;-82
2023/11/23 07:01:48;;;;;;;6.55;3.00;;;;;;;8.98;100.00;98260.19;5009448;28;20053;-81
2023/11/23 07:04:13;;;;;;;5.57;2.80;;;;;;;9.03;100.00;98269.72;5009102;28;20026;-83
2023/11/23 07:06:39;;;;;;;1.35;1.25;;;;;;;8.99;100.00;98268.13;4992714;28;20049;-82
2023/11/23 07:09:06;;;;;;;1.17;1.08;;;;;;;8.70;100.00;98255.19;4995452;28;20026;-83
2023/11/23 07:11:31;;;;;;;0.45;0.43;;;;;;;8.64;100.00;98258.97;5012909;28;20034;-83
2023/11/23 07:13:57;;;;;;;1.17;1.08;;;;;;;8.65;100.00;98259.84;5013995;28;20413;-82
2023/11/23 07:16:23;;;;;;;0.70;0.70;;;;;;;8.71;100.00;98272.91;4996321;28;20042;-82
2023/11/23 07:18:48;;;;;;;0.98;0.90;;;;;;;8.44;100.00;98269.63;4995950;28;20052;-83
2023/11/23 07:21:14;;;;;;;0.90;0.90;;;;;;;8.42;100.00;98265.28;4996069;28;20474;-82
2023/11/23 07:23:40;;;;;;;0.88;0.82;;;;;;;8.57;100.00;98267.31;4995929;28;20453;-82
2023/11/23 07:26:06;;;;;;;0.70;0.70;;;;;;;8.52;100.00;98266.66;5012232;28;20609;-83
2023/11/23 07:28:32;;;;;;;5.72;1.13;;;;;;;8.64;100.00;98280.31;4996456;28;20030;-83
2023/11/23 07:31:01;;;;;;;0.68;0.68;;;;;;;8.55;100.00;98290.53;4979962;28;20030;-83
2023/11/23 07:33:29;;;;;;;1.40;1.13;;;;;;;8.65;100.00;98295.38;4979205;28;20095;-80
2023/11/23 07:35:55;;;;;;;0.52;0.47;;;;;;;8.57;100.00;98281.50;4996085;28;20088;-81
2023/11/23 07:38:22;;;;;;;1.30;0.95;;;;;;;8.60;100.00;98285.84;4979648;28;20026;-81
2023/11/23 07:40:47;;;;;;;4.78;1.45;;;;;;;8.59;100.00;98276.09;4995490;28;20551;-81
2023/11/23 07:43:14;;;;;;;1.52;0.95;;;;;;;8.66;100.00;98277.59;4978977;28;20037;-81
2023/11/23 07:45:39;;;;;;;0.95;0.93;;;;;;;8.54;100.00;98262.09;4979343;28;20100;-81
2023/11/23 07:48:08;;;;;;;1.08;1.00;;;;;;;8.55;100.00;98263.84;4995027;28;20545;-81
2023/11/23 07:50:37;;;;;;;1.55;0.95;;;;;;;8.67;100.00;98268.66;4973790;28;20026;-81
2023/11/23 07:53:03;;;;;;;1.40;1.20;;;;;;;8.69;100.00;98262.31;4995336;28;20025;-80
2023/11/23 07:55:29;;;;;;;1.90;0.75;;;;;;;8.84;100.00;98258.13;4995323;28;20032;-81
2023/11/23 07:57:54;;;;;;;4.50;1.55;;;;;;;8.89;100.00;98234.75;4978899;28;20036;-81
2023/11/23 08:14:56;;;;;;;2.80;1.60;;;;;;;9.58;100.00;98219.16;5085010;27;1853321;-82
2023/11/23 08:17:23;;;;;;;1.33;1.23;;;;;;;9.50;100.00;98213.31;5093539;28;20648;-82
2023/11/23 08:19:48;;;;;;;3.00;1.33;;;;;;;9.53;100.00;98222.03;5093377;28;20114;-81
2023/11/23 08:22:16;;;;;;;1.58;1.48;;;;;;;9.49;100.00;98215.09;5093364;28;20114;-82
2023/11/23 08:24:42;;;;;;;0.70;0.70;;;;;;;9.48;100.00;98233.84;5093375;28;20546;-83
2023/11/23 08:27:07;;;;;;;1.00;1.00;;;;;;;9.37;100.00;98214.81;5093223;28;20023;-82
2023/11/23 08:29:33;;;;;;;0.57;0.57;;;;;;;9.37;100.00;98213.00;5110181;28;20038;-82
2023/11/23 08:31:59;;;;;;;1.45;1.17;;;;;;;9.37;100.00;98213.00;5110141;28;20080;-82
2023/11/23 08:34:27;;;;;;;0.90;0.73;;;;;;;9.33;100.00;98224.75;5093102;28;20034;-82
2023/11/23 08:36:54;;;;;;;0.90;0.90;;;;;;;9.22;100.00;98213.72;5128557;28;20027;-82
2023/11/23 08:39:46;;;;;;;0.28;0.28;;;;;;;9.17;100.00;98229.94;5092927;28;20023;-83
2023/11/23 08:42:12;;;;;;;2.23;0.40;;;;;;;9.02;100.00;98195.06;5109661;28;20020;-83
2023/11/23 08:44:38;;;;;;;0.63;0.52;;;;;;;9.18;100.00;98210.31;5093141;28;20485;-81
2023/11/23 08:47:03;;;;;;;0.20;0.20;;;;;;;9.18;100.00;98204.13;5109689;28;20104;-81
2023/11/23 08:49:31;;;;;;;0.57;0.57;;;;;;;9.26;100.00;98201.94;5092808;28;20031;-81
2023/11/23 08:51:57;;;;;;;0.57;0.30;;;;;;;9.14;100.00;98199.84;5093033;28;20405;-82
2023/11/23 08:54:23;;;;;;;0.38;0.38;;;;;;;9.22;100.00;98193.25;5092657;28;20110;-81
2023/11/23 08:56:49;;;;;;;3.20;1.50;;;;;;;9.34;100.00;98199.81;5092581;28;20500;-81
2023/11/23 08:59:14;;;;;;;0.70;0.70;;;;;;;9.37;100.00;98175.63;5092445;28;20027;-81
2023/11/23 09:01:40;;;;;;;0.77;0.77;;;;;;;9.62;100.00;98189.56;5092703;28;20023;-81
2023/11/23 09:04:05;;;;;;;0.40;0.40;;;;;;;9.66;100.00;98180.44;5109256;28;20025;-81
2023/11/23 09:06:31;;;;;;;0.73;0.73;;;;;;;9.62;100.00;98202.91;5109837;28;20122;-81
2023/11/23 09:09:00;;;;;;;1.00;0.65;;;;;;;9.59;100.00;98172.81;5109266;28;20031;-82
2023/11/23 09:11:26;;;;;;;0.38;0.38;;;;;;;9.45;100.00;98161.91;5092857;28;20023;-82
2023/11/23 09:13:52;;;;;;;0.40;0.40;;;;;;;9.61;100.00;98165.59;5083026;28;20461;-82
2023/11/23 09:16:18;;;;;;;0.32;0.32;;;;;;;9.78;100.00;98158.47;5054838;28;20024;-81
2023/11/23 09:18:44;;;;;;;0.98;0.80;;;;;;;9.96;100.00;98154.03;5072012;28;20047;-82
2023/11/23 09:21:10;;;;;;;1.02;0.75;;;;;;;10.22;100.00;98175.00;5054883;28;20071;-83
2023/11/23 09:23:36;;;;;;;2.83;0.98;;;;;;;10.04;100.00;98153.66;5088629;28;20051;-83
2023/11/23 09:42:23;;;;;;;0.70;0.70;;;;;;;10.65;100.00;98140.69;5149723;27;20434;-78
2023/11/23 09:44:54;;;;;;;1.25;1.08;;;;;;;10.86;100.00;98140.41;5148827;27;20027;-76
2023/11/23 09:47:20;;;;;;;0.90;0.70;;;;;;;10.98;100.00;98127.34;5123467;27;20038;-77
2023/11/23 09:49:46;;;;;;;1.25;0.55;;;;;;;10.98;100.00;98125.53;5142592;27;20486;-78
2023/11/23 09:52:12;;;;;;;0.90;0.60;;;;;;;11.08;100.00;98124.06;5138014;27;20027;-78
2023/11/23 09:54:37;;;;;;;1.83;0.60;;;;;;;11.08;100.00;98099.97;5144047;27;20023;-78
2023/11/23 09:57:04;;;;;;;1.02;0.73;;;;;;;11.34;100.00;98109.25;5111079;27;20084;-78
2023/11/23 09:59:30;;;;;;;0.43;0.43;;;;;;;11.06;100.00;98101.88;5131606;27;20118;-78
2023/11/23 10:02:03;;;;;;;0.38;0.38;;;;;;;11.36;100.00;98084.09;5131379;27;20481;-80
2023/11/23 10:04:30;;;;;;;0.75;0.75;;;;;;;11.61;100.00;98090.75;5123646;27;20114;-77
2023/11/23 10:06:56;;;;;;;0.55;0.55;;;;;;;11.67;100.00;98061.78;5115473;28;20406;-78
2023/11/23 10:09:26;;;;;;;0.50;0.50;;;;;;;11.58;100.00;98064.13;5129351;27;20027;-78
2023/11/23 10:11:54;;;;;;;0.20;0.20;;;;;;;11.47;100.00;98066.56;5139742;27;20447;-77
2023/11/23 10:14:20;;;;;;;0.88;0.80;;;;;;;11.54;100.00;98065.25;5130695;27;20121;-77
2023/11/23 10:16:46;;;;;;;0.52;0.43;;;;;;;11.79;100.00;98054.84;5125480;28;20131;-78
2023/11/23 10:19:24;;;;;;;0.40;0.40;;;;;;;12.06;100.00;98042.50;5119267;27;20034;-77
2023/11/23 10:21:54;;;;;;;0.50;0.50;;;;;;;12.25;100.00;98035.06;5125133;28;20027;-78
2023/11/23 10:24:23;;;;;;;0.57;0.35;;;;;;;12.48;100.00;98042.59;5111770;27;20517;-77
2023/11/23 10:26:50;;;;;;;1.02;0.50;;;;;;;12.55;100.00;98036.84;5116986;28;20028;-78
2023/11/23 10:29:18;;;;;;;0.55;0.55;;;;;;;12.47;100.00;98026.56;5110791;27;20490;-78
2023/11/23 10:31:43;;;;;;;0.52;0.52;;;;;;;12.38;100.00;98033.38;5117705;28;20052;-78
2023/11/23 10:34:10;;;;;;;1.35;1.13;;;;;;;12.37;100.00;98033.47;5126838;27;20396;-76
2023/11/23 10:36:41;;;;;;;2.03;1.17;;;;;;;12.27;100.00;98016.22;5138621;27;20027;-77
2023/11/23 10:39:11;;;;;;;2.35;1.25;;;;;;;12.18;100.00;98016.78;5131486;27;20027;-77
2023/11/23 10:41:39;;;;;;;0.68;0.55;;;;;;;12.34;100.00;98015.72;5126165;27;20047;-77
2023/11/23 10:44:05;;;;;;;0.93;0.70;;;;;;;12.28;100.00;98007.19;5108096;27;20034;-78
2023/11/23 10:46:30;;;;;;;3.33;1.20;;;;;;;12.33;100.00;98003.31;5099583;27;20023;-77
2023/11/23 10:48:56;;;;;;;1.23;0.88;;;;;;;12.36;100.00;97999.56;5133856;27;20023;-78
2023/11/23 10:51:25;;;;;;;1.70;1.10;;;;;;;12.04;100.00;97997.97;5116491;27;20114;-78
2023/11/23 10:53:51;;;;;;;0.40;0.40;;;;;;;11.54;100.00;97995.59;5103282;28;20527;-77
2023/11/23 10:56:20;;;;;;;0.50;0.50;;;;;;;11.52;100.00;97995.69;5121702;27;20084;-78
2023/11/23 10:58:49;;;;;;;0.30;0.30;;;;;;;11.57;100.00;98001.63;5107863;27;20355;-78
2023/11/23 11:01:21;;;;;;;0.20;0.20;;;;;;;11.63;100.00;97992.38;5116867;27;20523;-77
2023/11/23 11:03:46;;;;;;;1.20;0.75;;;;;;;11.62;100.00;97996.00;5125278;27;20031;-78
2023/11/23 11:06:16;;;;;;;0.30;0.30;;;;;;;11.31;100.00;97995.13;5124740;27;20046;-78
2023/11/23 11:08:47;;;;;;;1.65;0.95;;;;;;;11.15;100.00;97993.41;5116153;27;20027;-78
2023/11/23 11:11:17;;;;;;;2.05;1.27;;;;;;;11.06;100.00;97997.47;5125542;27;20032;-78
2023/11/23 11:13:43;;;;;;;0.77;0.77;;;;;;;11.05;100.00;98001.09;5107036;27;20335;-78
2023/11/23 11:16:11;;;;;;;0.82;0.82;;;;;;;10.83;100.00;98000.56;5107281;27;20033;-78
2023/11/23 11:18:37;;;;;;;1.75;0.80;;;;;;;10.93;100.00;97995.56;5130111;27;20027;-78
2023/11/23 11:21:06;;;;;;;0.77;0.77;;;;;;;10.95;100.00;97999.03;5112318;28;20034;-78
2023/11/23 11:23:50;;;;;;;0.30;0.30;;;;;;;10.79;100.00;97999.91;5113450;27;20421;-78
2023/11/23 11:26:21;;;;;;;1.10;0.70;;;;;;;10.77;100.00;97992.88;5116115;27;20031;-78
2023/11/23 11:29:01;;;;;;;1.33;0.97;;;;;;;10.37;100.00;97991.53;5115776;27;20019;-78
2023/11/23 11:31:33;;;;;;;1.88;1.35;;;;;;;10.41;100.00;97986.88;5132938;27;20865;-78
2023/11/23 11:34:03;;;;;;;;;;;;;;;10.42;100.00;97999.31;5119717;27;20108;-77
2023/11/23 11:36:30;;;;;;;1.02;0.93;;;;;;;10.46;100.00;97991.03;5121240;27;19915;-78
2023/11/23 11:39:00;;;;;;;0.40;0.40;;;;;;;10.50;100.00;97986.38;5111374;28;20058;-77
2023/11/23 11:41:34;;;;;;;0.45;0.28;;;;;;;10.51;100.00;97983.63;5102981;27;20053;-78
2023/11/23 11:44:00;;;;;;;0.95;0.95;;;;;;;10.56;100.00;97986.91;5104308;28;20121;-78
2023/11/23 11:46:29;;;;;;;1.33;1.23;;;;;;;10.24;100.00;97982.44;5128704;27;20023;-77
2023/11/23 11:48:57;;;;;;;1.75;1.10;;;;;;;10.24;100.00;97975.28;5103514;28;20036;-78
2023/11/23 11:51:25;;;;;;;3.45;1.13;;;;;;;10.34;100.00;97973.84;5111078;27;20047;-77
2023/11/23 11:53:50;;;;;;;1.52;1.25;;;;;;;10.34;100.00;97981.00;5096798;27;20447;-78
2023/11/23 11:56:16;;;;;;;0.45;0.40;;;;;;;10.39;100.00;97967.38;5106554;27;20014;-78